createdAt,value
2023-05-08T00:00:19.179Z,5.50
2023-05-08T00:02:47.348Z,5.70
2023-05-08T00:05:15.612Z,6.73
2023-05-08T00:07:43.583Z,6.60
2023-05-08T00:10:12.604Z,6.03
2023-05-08T00:12:40.899Z,7.27
2023-05-08T00:15:10.700Z,6.10
2023-05-08T00:17:39.985Z,6.30
2023-05-08T00:20:08.991Z,6.50
2023-05-08T00:22:36.878Z,5.23
2023-05-08T00:25:05.730Z,6.90
2023-05-08T00:27:33.829Z,6.27
2023-05-08T00:30:01.664Z,6.10
2023-05-08T00:32:29.954Z,5.87
2023-05-08T00:34:59.251Z,6.90
2023-05-08T00:37:27.101Z,5.97
2023-05-08T00:39:54.923Z,6.10
2023-05-08T00:42:22.768Z,7.33
2023-05-08T00:44:51.107Z,5.97
2023-05-08T00:47:19.063Z,6.83
2023-05-08T00:49:47.034Z,6.60
2023-05-08T00:52:17.253Z,7.07
2023-05-08T00:54:45.749Z,6.60
2023-05-08T00:57:15.059Z,6.27
2023-05-08T00:59:45.371Z,6.30
2023-05-08T01:02:13.483Z,6.60
2023-05-08T01:04:44.288Z,5.80
2023-05-08T01:07:12.367Z,7.43
2023-05-08T01:09:41.711Z,6.30
2023-05-08T01:12:18.832Z,6.50
2023-05-08T01:15:03.304Z,6.77
2023-05-08T01:17:39.460Z,5.70
2023-05-08T01:20:20.168Z,6.13
2023-05-08T01:23:34.660Z,7.47
2023-05-08T01:26:22.667Z,7.10
2023-05-08T01:29:30.817Z,7.23
2023-05-08T01:32:16.726Z,7.70
2023-05-08T01:34:52.873Z,6.70
2023-05-08T01:37:31.419Z,7.80
2023-05-08T01:40:08.830Z,7.03
2023-05-08T01:42:45.733Z,7.83
2023-05-08T01:45:20.189Z,7.57
2023-05-08T01:47:56.217Z,6.83
2023-05-08T01:50:31.633Z,6.50
2023-05-08T01:53:03.297Z,7.53
2023-05-08T01:55:35.629Z,6.90
2023-05-08T01:58:08.263Z,7.80
2023-05-08T02:00:38.527Z,7.10
2023-05-08T02:03:10.535Z,7.10
2023-05-08T02:05:39.852Z,7.87
2023-05-08T02:08:10.383Z,6.87
2023-05-08T02:10:38.965Z,6.93
2023-05-08T02:13:09.373Z,7.70
2023-05-08T02:15:38.751Z,8.30
2023-05-08T02:18:09.663Z,7.70
2023-05-08T02:20:39.534Z,8.00
2023-05-08T02:23:07.790Z,7.80
2023-05-08T02:25:37.362Z,6.83
2023-05-08T02:28:07.286Z,8.00
2023-05-08T02:30:35.355Z,7.00
2023-05-08T02:33:06.194Z,7.30
2023-05-08T02:35:36.372Z,7.40
2023-05-08T02:38:10.579Z,7.53
2023-05-08T02:40:41.298Z,7.43
2023-05-08T02:43:09.338Z,7.07
2023-05-08T02:45:44.493Z,7.53
2023-05-08T02:48:15.891Z,8.37
2023-05-08T02:50:53.026Z,7.17
2023-05-08T02:53:27.343Z,7.20
2023-05-08T02:56:00.840Z,8.60
2023-05-08T02:58:35.994Z,7.73
2023-05-08T03:01:08.057Z,7.50
2023-05-08T03:03:40.915Z,8.80
2023-05-08T03:06:14.614Z,7.73
2023-05-08T03:08:43.924Z,8.50
2023-05-08T03:11:17.087Z,7.93
2023-05-08T03:13:47.754Z,7.90
2023-05-08T03:16:21.529Z,8.10
2023-05-08T03:18:55.942Z,7.77
2023-05-08T03:21:29.160Z,8.17
2023-05-08T03:23:59.771Z,7.60
2023-05-08T03:26:28.143Z,8.73
2023-05-08T03:28:58.580Z,7.87
2023-05-08T03:31:27.820Z,7.63
2023-05-08T03:33:57.302Z,8.13
2023-05-08T03:36:27.277Z,7.40
2023-05-08T03:38:55.180Z,8.10
2023-05-08T03:41:23.552Z,8.20
2023-05-08T03:43:52.026Z,8.37
2023-05-08T03:46:21.836Z,8.63
2023-05-08T03:48:50.511Z,7.27
2023-05-08T03:51:18.841Z,7.27
2023-05-08T03:53:48.078Z,6.90
2023-05-08T03:56:16.053Z,7.33
2023-05-08T03:58:51.752Z,7.03
2023-05-08T04:01:24.413Z,7.10
2023-05-08T04:04:00.896Z,7.70
2023-05-08T04:06:41.989Z,6.87
2023-05-08T04:09:25.081Z,7.70
2023-05-08T04:12:02.016Z,8.17
2023-05-08T04:14:35.681Z,8.33
2023-05-08T04:17:07.147Z,7.60
2023-05-08T04:19:40.094Z,7.07
2023-05-08T04:22:09.465Z,7.67
2023-05-08T04:24:43.007Z,8.33
2023-05-08T04:27:11.541Z,7.53
2023-05-08T04:29:39.563Z,8.40
2023-05-08T04:32:08.598Z,7.77
2023-05-08T04:34:37.138Z,7.97
2023-05-08T04:37:07.269Z,8.13
2023-05-08T04:39:35.349Z,8.10
2023-05-08T04:42:04.865Z,8.40
2023-05-08T04:44:32.728Z,8.97
2023-05-08T04:47:00.553Z,8.10
2023-05-08T04:49:28.412Z,8.13
2023-05-08T04:51:56.286Z,8.67
2023-05-08T04:54:24.127Z,8.60
2023-05-08T04:56:51.958Z,7.10
2023-05-08T04:59:21.177Z,7.40
2023-05-08T05:01:49.032Z,8.43
2023-05-08T05:04:16.894Z,7.77
2023-05-08T05:06:44.882Z,6.50
2023-05-08T05:09:12.746Z,7.27
2023-05-08T05:11:40.638Z,7.30
2023-05-08T05:14:08.493Z,7.30
2023-05-08T05:16:38.074Z,7.17
2023-05-08T05:19:05.998Z,6.47
2023-05-08T05:21:33.895Z,6.83
2023-05-08T05:24:01.712Z,7.60
2023-05-08T05:26:29.622Z,5.87
2023-05-08T05:28:57.683Z,6.70
2023-05-08T05:31:25.841Z,6.00
2023-05-08T05:33:55.345Z,6.27
2023-05-08T05:36:23.199Z,6.77
2023-05-08T05:38:51.121Z,7.10
2023-05-08T05:41:18.988Z,6.53
2023-05-08T05:43:46.801Z,7.90
2023-05-08T05:46:14.692Z,6.53
2023-05-08T05:48:42.675Z,6.67
2023-05-08T05:51:11.978Z,6.30
2023-05-08T05:53:39.895Z,6.53
2023-05-08T05:56:08.820Z,7.90
2023-05-08T05:58:36.654Z,6.33
2023-05-08T06:01:04.800Z,6.67
2023-05-08T06:03:32.735Z,6.30
2023-05-08T06:06:00.639Z,6.73
2023-05-08T06:08:29.862Z,6.37
2023-05-08T06:10:58.217Z,7.37
2023-05-08T06:13:26.504Z,6.30
2023-05-08T06:15:56.425Z,5.50
2023-05-08T06:18:24.546Z,6.97
2023-05-08T06:20:57.627Z,6.30
2023-05-08T06:23:25.549Z,5.57
2023-05-08T06:25:54.804Z,6.90
2023-05-08T06:28:25.850Z,6.47
2023-05-08T06:30:54.118Z,7.33
2023-05-08T06:33:22.486Z,5.60
2023-05-08T06:35:51.552Z,6.57
2023-05-08T06:38:19.729Z,6.03
2023-05-08T06:40:50.098Z,6.37
2023-05-08T06:43:19.294Z,6.00
2023-05-08T06:45:47.139Z,7.00
2023-05-08T06:48:15.038Z,6.10
2023-05-08T06:50:43.312Z,6.20
2023-05-08T06:53:11.351Z,5.90
2023-05-08T06:55:39.188Z,7.07
2023-05-08T06:58:07.006Z,6.43
2023-05-08T07:00:36.193Z,6.10
2023-05-08T07:03:04.148Z,6.30
2023-05-08T07:05:31.982Z,6.23
2023-05-08T07:07:59.915Z,6.80
2023-05-08T07:10:27.709Z,5.63
2023-05-08T07:12:55.592Z,5.40
2023-05-08T07:15:26.611Z,6.63
2023-05-08T07:17:56.344Z,6.57
2023-05-08T07:20:24.633Z,6.60
2023-05-08T07:22:52.708Z,6.33
2023-05-08T07:25:20.621Z,5.97
2023-05-08T07:27:48.633Z,5.70
2023-05-08T07:30:16.902Z,5.90
2023-05-08T07:32:44.876Z,7.00
2023-05-08T07:35:15.494Z,5.73
2023-05-08T07:37:43.617Z,5.90
2023-05-08T07:40:11.975Z,4.93
2023-05-08T07:42:41.165Z,5.20
2023-05-08T07:45:10.894Z,4.83
2023-05-08T07:47:38.861Z,6.00
2023-05-08T07:50:07.752Z,5.57
2023-05-08T07:52:36.905Z,6.47
2023-05-08T07:55:05.225Z,5.30
2023-05-08T07:57:37.854Z,6.00
2023-05-08T08:00:06.949Z,6.10
2023-05-08T08:02:34.916Z,4.50
2023-05-08T08:05:02.871Z,5.67
2023-05-08T08:07:32.631Z,6.63
2023-05-08T08:10:02.081Z,6.30
2023-05-08T08:12:29.987Z,5.40
2023-05-08T08:14:57.936Z,5.00
2023-05-08T08:17:28.506Z,4.67
2023-05-08T08:19:57.169Z,5.80
2023-05-08T08:22:25.564Z,5.40
2023-05-08T08:24:55.131Z,4.67
2023-05-08T08:27:24.897Z,5.20
2023-05-08T08:30:04.500Z,5.80
2023-05-08T08:32:41.309Z,5.57
2023-05-08T08:35:10.475Z,4.90
2023-05-08T08:37:38.481Z,5.47
2023-05-08T08:40:07.677Z,5.80
2023-05-08T08:42:37.068Z,5.30
2023-05-08T08:45:06.738Z,6.70
2023-05-08T08:47:38.314Z,5.03
2023-05-08T08:50:08.740Z,4.60
2023-05-08T08:52:44.358Z,5.73
2023-05-08T08:55:15.981Z,6.50
2023-05-08T08:57:56.164Z,5.20
2023-05-08T09:00:28.305Z,5.60
2023-05-08T09:02:56.402Z,5.67
2023-05-08T09:05:26.519Z,5.70
2023-05-08T09:07:56.380Z,5.97
2023-05-08T09:10:25.683Z,6.70
2023-05-08T09:12:55.103Z,6.20
2023-05-08T09:15:23.318Z,5.43
2023-05-08T09:17:51.274Z,6.57
2023-05-08T09:20:19.994Z,5.30
2023-05-08T09:22:49.117Z,5.43
2023-05-08T09:25:18.938Z,5.40
2023-05-08T09:27:47.089Z,5.83
2023-05-08T09:30:16.544Z,5.60
2023-05-08T09:32:45.612Z,6.00
2023-05-08T09:35:14.284Z,6.83
2023-05-08T09:37:44.102Z,6.70
2023-05-08T09:40:17.343Z,5.90
2023-05-08T09:42:45.576Z,6.30
2023-05-08T09:45:27.003Z,6.70
2023-05-08T09:47:56.339Z,6.07
2023-05-08T09:50:25.250Z,6.87
2023-05-08T09:52:53.174Z,6.20
2023-05-08T09:55:21.319Z,6.70
2023-05-08T09:57:57.733Z,6.20
2023-05-08T10:00:26.880Z,6.70
2023-05-08T10:03:00.682Z,5.40
2023-05-08T10:05:31.260Z,6.03
2023-05-08T10:08:00.385Z,7.40
2023-05-08T10:10:30.539Z,7.60
2023-05-08T10:12:59.609Z,6.63
2023-05-08T10:15:31.116Z,7.03
2023-05-08T10:18:06.034Z,6.73
2023-05-08T10:20:35.808Z,5.50
2023-05-08T10:23:05.069Z,6.20
2023-05-08T10:25:34.507Z,5.70
2023-05-08T10:28:17.798Z,5.80
2023-05-08T10:30:49.860Z,5.47
2023-05-08T10:33:22.557Z,5.23
2023-05-08T10:35:50.723Z,6.70
2023-05-08T10:38:19.342Z,5.40
2023-05-08T10:40:48.082Z,4.23
2023-05-08T10:43:16.864Z,6.27
2023-05-08T10:45:45.464Z,5.50
2023-05-08T10:48:25.870Z,4.70
2023-05-08T10:51:02.309Z,5.47
2023-05-08T10:53:37.815Z,5.13
2023-05-08T10:56:06.272Z,5.30
2023-05-08T10:58:35.767Z,5.50
2023-05-08T11:01:14.995Z,4.87
2023-05-08T11:03:47.032Z,4.70
2023-05-08T11:06:16.294Z,4.90
2023-05-08T11:08:52.997Z,7.13
2023-05-08T11:11:29.542Z,5.37
2023-05-08T11:14:10.727Z,6.13
2023-05-08T11:17:08.443Z,4.97
2023-05-08T11:19:39.165Z,6.67
2023-05-08T11:22:17.973Z,7.00
2023-05-08T11:24:51.451Z,5.50
2023-05-08T11:27:31.655Z,6.40
2023-05-08T11:30:22.707Z,4.93
2023-05-08T11:33:14.276Z,5.90
2023-05-08T11:35:45.607Z,6.33
2023-05-08T11:38:17.188Z,7.53
2023-05-08T11:40:50.484Z,6.67
2023-05-08T11:43:44.209Z,5.53
2023-05-08T11:46:16.520Z,5.33
2023-05-08T11:48:44.892Z,6.83
2023-05-08T11:51:14.578Z,6.90
2023-05-08T11:53:44.649Z,6.13
2023-05-08T11:56:12.575Z,6.20
2023-05-08T11:58:40.450Z,5.90
2023-05-08T12:01:08.356Z,6.77
2023-05-08T12:03:36.393Z,6.60
2023-05-08T12:06:04.631Z,7.83
2023-05-08T12:08:33.869Z,7.27
2023-05-08T12:11:02.415Z,5.90
2023-05-08T12:13:31.247Z,6.10
2023-05-08T12:16:02.716Z,6.43
2023-05-08T12:18:30.845Z,5.80
2023-05-08T12:21:00.908Z,6.20
2023-05-08T12:23:31.462Z,6.73
2023-05-08T12:26:02.604Z,7.10
2023-05-08T12:28:32.230Z,5.70
2023-05-08T12:31:00.298Z,6.73
2023-05-08T12:33:28.709Z,6.67
2023-05-08T12:35:56.655Z,6.13
2023-05-08T12:38:27.985Z,6.27
2023-05-08T12:40:56.483Z,6.83
2023-05-08T12:43:34.524Z,6.60
2023-05-08T12:46:03.266Z,6.70
2023-05-08T12:48:31.406Z,6.93
2023-05-08T12:51:04.756Z,6.03
2023-05-08T12:53:33.962Z,7.17
2023-05-08T12:56:04.211Z,6.93
2023-05-08T12:58:34.723Z,6.43
2023-05-08T13:01:12.863Z,6.40
2023-05-08T13:03:41.525Z,6.67
2023-05-08T13:06:20.795Z,5.93
2023-05-08T13:08:54.454Z,7.17
2023-05-08T13:11:31.365Z,6.37
2023-05-08T13:14:00.776Z,6.40
2023-05-08T13:16:28.760Z,5.93
2023-05-08T13:18:56.701Z,6.53
2023-05-08T13:21:26.584Z,5.50
2023-05-08T13:23:56.597Z,6.17
2023-05-08T13:26:24.594Z,6.10
2023-05-08T13:29:12.127Z,7.30
2023-05-08T13:31:40.086Z,5.50
2023-05-08T13:34:08.110Z,6.57
2023-05-08T13:36:36.090Z,5.47
2023-05-08T13:39:04.046Z,5.80
2023-05-08T13:41:31.974Z,6.33
2023-05-08T13:43:59.878Z,5.67
2023-05-08T13:46:29.311Z,7.03
2023-05-08T13:48:57.409Z,6.30
2023-05-08T13:51:25.381Z,6.17
2023-05-08T13:53:53.287Z,6.40
2023-05-08T13:56:22.395Z,6.43
2023-05-08T13:58:50.475Z,7.50
2023-05-08T14:01:26.621Z,5.63
2023-05-08T14:03:56.756Z,6.83
2023-05-08T14:06:24.746Z,6.53
2023-05-08T14:08:55.424Z,6.30
2023-05-08T14:11:24.772Z,6.43
2023-05-08T14:13:52.805Z,7.23
2023-05-08T14:16:20.825Z,5.87
2023-05-08T14:18:48.856Z,6.00
2023-05-08T14:21:18.153Z,7.00
2023-05-08T14:23:46.124Z,8.00
2023-05-08T14:26:14.033Z,8.20
2023-05-08T14:28:42.035Z,6.87
2023-05-08T14:31:10.047Z,6.83
2023-05-08T14:33:38.028Z,6.33
2023-05-08T14:36:06.373Z,7.17
2023-05-08T14:38:35.673Z,6.20
2023-05-08T14:41:04.898Z,5.50
2023-05-08T14:43:33.038Z,6.40
2023-05-08T14:46:01.053Z,8.57
2023-05-08T14:48:29.000Z,6.80
2023-05-08T14:50:57.634Z,5.80
2023-05-08T14:53:25.803Z,7.30
2023-05-08T14:55:55.570Z,6.00
2023-05-08T14:58:23.696Z,6.60
2023-05-08T15:00:51.704Z,5.83
2023-05-08T15:03:19.712Z,5.87
2023-05-08T15:05:48.408Z,8.17
2023-05-08T15:08:16.850Z,6.10
2023-05-08T15:10:45.614Z,7.50
2023-05-08T15:13:14.944Z,7.43
2023-05-08T15:15:42.918Z,7.13
2023-05-08T15:18:11.038Z,7.07
2023-05-08T15:20:39.010Z,6.87
2023-05-08T15:23:07.182Z,6.33
2023-05-08T15:25:35.078Z,6.13
2023-05-08T15:28:04.988Z,6.27
2023-05-08T15:30:36.525Z,7.80
2023-05-08T15:33:05.023Z,6.70
2023-05-08T15:35:33.069Z,7.33
2023-05-08T15:38:04.638Z,7.10
2023-05-08T15:40:32.711Z,7.10
2023-05-08T15:43:00.644Z,8.17
2023-05-08T15:45:28.699Z,8.50
2023-05-08T15:47:58.454Z,7.63
2023-05-08T15:50:26.427Z,8.23
2023-05-08T15:52:54.342Z,8.27
2023-05-08T15:55:23.429Z,8.23
2023-05-08T15:57:51.522Z,9.20
2023-05-08T16:00:21.456Z,8.20
2023-05-08T16:02:50.965Z,8.37
2023-05-08T16:05:20.431Z,7.50
2023-05-08T16:07:50.435Z,8.10
2023-05-08T16:10:18.500Z,8.63
2023-05-08T16:12:46.658Z,8.30
2023-05-08T16:15:14.854Z,7.43
2023-05-08T16:17:43.065Z,6.90
2023-05-08T16:20:12.609Z,7.97
2023-05-08T16:22:41.845Z,7.10
2023-05-08T16:25:10.773Z,7.63
2023-05-08T16:27:38.846Z,7.47
2023-05-08T16:30:08.286Z,7.90
2023-05-08T16:32:36.389Z,6.70
2023-05-08T16:35:04.803Z,6.53
2023-05-08T16:37:32.813Z,6.53
2023-05-08T16:40:02.588Z,7.47
2023-05-08T16:42:30.938Z,6.00
2023-05-08T16:44:59.610Z,6.20
2023-05-08T16:47:27.801Z,7.27
2023-05-08T16:49:56.362Z,6.90
2023-05-08T16:52:24.452Z,6.30
2023-05-08T16:54:52.451Z,6.50
2023-05-08T16:57:22.027Z,7.03
2023-05-08T16:59:49.922Z,6.03
2023-05-08T17:02:19.199Z,7.37
2023-05-08T17:04:48.029Z,7.90
2023-05-08T17:07:16.672Z,7.00
2023-05-08T17:09:45.168Z,6.50
2023-05-08T17:12:13.421Z,6.20
2023-05-08T17:14:42.885Z,7.13
2023-05-08T17:17:11.355Z,7.83
2023-05-08T17:19:39.297Z,7.33
2023-05-08T17:22:07.492Z,8.10
2023-05-08T17:24:37.408Z,7.30
2023-05-08T17:27:06.901Z,7.57
2023-05-08T17:29:35.126Z,6.70
2023-05-08T17:32:04.710Z,8.57
2023-05-08T17:34:32.841Z,8.33
2023-05-08T17:37:00.878Z,8.70
2023-05-08T17:39:28.870Z,8.50
2023-05-08T17:41:57.142Z,8.80
2023-05-08T17:44:25.140Z,7.00
2023-05-08T17:46:53.122Z,8.00
2023-05-08T17:49:22.587Z,7.87
2023-05-08T17:51:50.675Z,7.60
2023-05-08T17:54:18.655Z,7.80
2023-05-08T17:56:46.738Z,7.17
2023-05-08T17:59:14.723Z,7.80
2023-05-08T18:01:42.814Z,7.57
2023-05-08T18:04:10.898Z,7.73
2023-05-08T18:06:40.489Z,6.47
2023-05-08T18:09:09.428Z,7.00
2023-05-08T18:11:37.403Z,7.07
2023-05-08T18:14:05.370Z,6.70
2023-05-08T18:16:33.457Z,7.20
2023-05-08T18:19:01.783Z,6.23
2023-05-08T18:21:29.821Z,5.63
2023-05-08T18:23:59.210Z,5.77
2023-05-08T18:26:27.254Z,6.03
2023-05-08T18:28:55.218Z,6.03
2023-05-08T18:31:23.286Z,6.73
2023-05-08T18:33:51.383Z,6.63
2023-05-08T18:36:19.332Z,6.63
2023-05-08T18:38:47.332Z,6.70
2023-05-08T18:41:16.666Z,6.53
2023-05-08T18:43:44.829Z,6.43
2023-05-08T18:46:13.567Z,6.83
2023-05-08T18:48:42.001Z,6.53
2023-05-08T18:51:10.153Z,5.77
2023-05-08T18:53:39.336Z,6.53
2023-05-08T18:56:07.724Z,5.33
2023-05-08T18:58:37.056Z,5.53
2023-05-08T19:01:06.100Z,5.43
2023-05-08T19:03:34.515Z,5.80
2023-05-08T19:06:02.544Z,5.70
2023-05-08T19:08:30.601Z,5.63
2023-05-08T19:10:58.612Z,6.13
2023-05-08T19:13:26.756Z,6.70
2023-05-08T19:15:56.372Z,6.27
2023-05-08T19:18:24.365Z,5.40
2023-05-08T19:20:52.328Z,5.23
2023-05-08T19:23:20.300Z,5.80
2023-05-08T19:25:48.226Z,6.07
2023-05-08T19:28:16.244Z,5.90
2023-05-08T19:30:44.193Z,6.20
2023-05-08T19:33:13.497Z,5.57
2023-05-08T19:35:41.436Z,6.70
2023-05-08T19:38:09.311Z,6.80
2023-05-08T19:40:48.337Z,7.73
2023-05-08T19:43:24.137Z,8.03
2023-05-08T19:45:52.239Z,6.90
2023-05-08T19:48:21.717Z,6.23
2023-05-08T19:50:50.956Z,6.63
2023-05-08T19:53:19.875Z,6.67
2023-05-08T19:55:49.311Z,6.50
2023-05-08T19:58:18.139Z,6.70
2023-05-08T20:00:50.847Z,7.03
2023-05-08T20:03:19.285Z,6.50
2023-05-08T20:05:48.766Z,6.20
2023-05-08T20:08:16.781Z,7.43
2023-05-08T20:10:45.940Z,7.20
2023-05-08T20:13:13.898Z,6.60
2023-05-08T20:15:41.856Z,7.13
2023-05-08T20:18:09.816Z,7.27
2023-05-08T20:20:37.724Z,7.07
2023-05-08T20:23:06.977Z,6.47
2023-05-08T20:25:34.942Z,6.40
2023-05-08T20:28:03.272Z,7.20
2023-05-08T20:30:31.295Z,6.90
2023-05-08T20:33:04.781Z,7.17
2023-05-08T20:35:33.464Z,7.63
2023-05-08T20:38:01.377Z,7.10
2023-05-08T20:40:30.821Z,7.17
2023-05-08T20:42:58.755Z,8.30
2023-05-08T20:45:26.716Z,6.50
2023-05-08T20:47:54.754Z,7.63
2023-05-08T20:50:22.898Z,6.50
2023-05-08T20:52:51.711Z,6.90
2023-05-08T20:55:19.786Z,7.60
2023-05-08T20:57:49.000Z,8.03
2023-05-08T21:00:17.296Z,7.50
2023-05-08T21:02:45.348Z,7.57
2023-05-08T21:05:13.425Z,7.07
2023-05-08T21:07:42.433Z,7.50
2023-05-08T21:10:11.208Z,7.23
2023-05-08T21:12:39.835Z,7.77
2023-05-08T21:15:10.039Z,7.77
2023-05-08T21:17:37.979Z,6.90
2023-05-08T21:20:07.167Z,6.90
2023-05-08T21:22:35.082Z,7.40
2023-05-08T21:25:03.048Z,8.00
2023-05-08T21:27:30.948Z,6.83
2023-05-08T21:29:58.825Z,7.93
2023-05-08T21:32:28.061Z,7.00
2023-05-08T21:34:56.973Z,7.70
2023-05-08T21:37:24.979Z,7.27
2023-05-08T21:39:54.214Z,7.57
2023-05-08T21:42:22.124Z,8.03
2023-05-08T21:44:50.046Z,9.00
2023-05-08T21:47:17.951Z,8.27
2023-05-08T21:49:47.189Z,8.27
2023-05-08T21:52:18.280Z,8.73
2023-05-08T21:54:46.235Z,10.10
2023-05-08T21:57:14.165Z,8.30
2023-05-08T21:59:42.064Z,8.40
2023-05-08T22:02:10.062Z,8.17
2023-05-08T22:04:38.160Z,9.00
2023-05-08T22:07:07.475Z,8.23
2023-05-08T22:09:35.657Z,9.07
2023-05-08T22:12:03.645Z,8.30
2023-05-08T22:14:31.558Z,7.10
2023-05-08T22:16:59.464Z,7.40
2023-05-08T22:19:27.608Z,7.50
2023-05-08T22:21:55.470Z,8.00
2023-05-08T22:24:25.364Z,7.10
2023-05-08T22:26:53.253Z,7.73
2023-05-08T22:29:21.194Z,7.80
2023-05-08T22:31:49.118Z,8.27
2023-05-08T22:34:17.353Z,7.57
2023-05-08T22:36:45.254Z,8.63
2023-05-08T22:39:13.159Z,6.50
2023-05-08T22:41:42.618Z,8.10
2023-05-08T22:44:10.785Z,7.93
2023-05-08T22:46:39.566Z,7.70
2023-05-08T22:49:07.606Z,8.30
2023-05-08T22:51:36.185Z,8.20
2023-05-08T22:54:04.054Z,8.67
2023-05-08T22:56:31.951Z,6.90
2023-05-08T22:59:01.180Z,8.10
2023-05-08T23:01:29.110Z,8.17
2023-05-08T23:03:57.161Z,7.40
2023-05-08T23:06:25.136Z,7.40
2023-05-08T23:08:53.025Z,7.47
2023-05-08T23:11:21.323Z,8.17
2023-05-08T23:13:49.194Z,7.40
2023-05-08T23:16:18.541Z,7.27
2023-05-08T23:18:46.697Z,7.50
2023-05-08T23:21:14.585Z,6.50
2023-05-08T23:23:42.554Z,7.53
2023-05-08T23:26:10.489Z,6.87
2023-05-08T23:28:38.476Z,6.60
2023-05-08T23:31:06.527Z,7.30
2023-05-08T23:33:35.921Z,6.80
2023-05-08T23:36:03.818Z,7.13
2023-05-08T23:38:32.199Z,7.10
2023-05-08T23:41:00.142Z,6.60
2023-05-08T23:43:28.203Z,6.50
2023-05-08T23:45:56.184Z,6.30
2023-05-08T23:48:25.801Z,5.70
2023-05-08T23:50:55.099Z,6.80
2023-05-08T23:53:23.012Z,7.07
2023-05-08T23:55:52.302Z,6.70
2023-05-08T23:58:20.431Z,6.90
